sensor_id;sensor_type;location;lat;lon;timestamp;temperature;humidity
15355;DHT22;7777;52.254;9.618;2024-01-30T00:02:10;7.20;99.90
15355;DHT22;7777;52.254;9.618;2024-01-30T00:04:36;7.20;99.90
15355;DHT22;7777;52.254;9.618;2024-01-30T00:07:02;7.30;99.90
15355;DHT22;7777;52.254;9.618;2024-01-30T00:09:28;7.30;99.90
15355;DHT22;7777;52.254;9.618;2024-01-30T00:11:54;7.30;99.90
15355;DHT22;7777;52.254;9.618;2024-01-30T00:14:20;7.30;99.90
15355;DHT22;7777;52.254;9.618;2024-01-30T00:16:45;7.30;99.90
15355;DHT22;7777;52.254;9.618;2024-01-30T00:19:11;7.30;99.90
15355;DHT22;7777;52.254;9.618;2024-01-30T00:21:37;7.30;99.90
15355;DHT22;7777;52.254;9.618;2024-01-30T00:24:03;7.30;99.90
15355;DHT22;7777;52.254;9.618;2024-01-30T00:26:29;7.30;99.90
15355;DHT22;7777;52.254;9.618;2024-01-30T00:28:55;7.30;99.90
15355;DHT22;7777;52.254;9.618;2024-01-30T00:31:20;7.30;99.90
15355;DHT22;7777;52.254;9.618;2024-01-30T00:33:46;7.30;99.90
15355;DHT22;7777;52.254;9.618;2024-01-30T00:36:12;7.30;99.90
15355;DHT22;7777;52.254;9.618;2024-01-30T00:38:38;7.30;99.90
15355;DHT22;7777;52.254;9.618;2024-01-30T00:41:04;7.30;99.90
15355;DHT22;7777;52.254;9.618;2024-01-30T00:43:30;7.30;99.90
15355;DHT22;7777;52.254;9.618;2024-01-30T00:45:56;7.30;99.90
15355;DHT22;7777;52.254;9.618;2024-01-30T00:48:23;7.30;99.90
15355;DHT22;7777;52.254;9.618;2024-01-30T00:50:49;7.30;99.90
15355;DHT22;7777;52.254;9.618;2024-01-30T00:53:15;7.30;99.90
15355;DHT22;7777;52.254;9.618;2024-01-30T00:55:41;7.40;99.90
15355;DHT22;7777;52.254;9.618;2024-01-30T00:58:06;7.40;99.90
15355;DHT22;7777;52.254;9.618;2024-01-30T01:00:32;7.40;99.90
15355;DHT22;7777;52.254;9.618;2024-01-30T01:02:58;7.40;99.90
15355;DHT22;7777;52.254;9.618;2024-01-30T01:05:25;7.40;99.90
15355;DHT22;7777;52.254;9.618;2024-01-30T01:07:50;7.40;99.90
15355;DHT22;7777;52.254;9.618;2024-01-30T01:10:17;7.40;99.90
15355;DHT22;7777;52.254;9.618;2024-01-30T01:12:43;7.40;99.90
15355;DHT22;7777;52.254;9.618;2024-01-30T01:15:09;7.50;99.90
15355;DHT22;7777;52.254;9.618;2024-01-30T01:17:36;7.50;99.90
15355;DHT22;7777;52.254;9.618;2024-01-30T01:20:03;7.50;99.90
15355;DHT22;7777;52.254;9.618;2024-01-30T01:22:30;7.50;99.90
15355;DHT22;7777;52.254;9.618;2024-01-30T01:24:56;7.50;99.90
15355;DHT22;7777;52.254;9.618;2024-01-30T01:27:22;7.60;99.90
15355;DHT22;7777;52.254;9.618;2024-01-30T01:29:47;7.60;99.90
15355;DHT22;7777;52.254;9.618;2024-01-30T01:32:14;7.60;99.90
15355;DHT22;7777;52.254;9.618;2024-01-30T01:34:39;7.60;99.90
15355;DHT22;7777;52.254;9.618;2024-01-30T01:37:05;7.60;99.90
15355;DHT22;7777;52.254;9.618;2024-01-30T01:39:31;7.60;99.90
15355;DHT22;7777;52.254;9.618;2024-01-30T01:41:56;7.60;99.90
15355;DHT22;7777;52.254;9.618;2024-01-30T01:44:22;7.60;99.90
15355;DHT22;7777;52.254;9.618;2024-01-30T01:46:48;7.60;99.90
15355;DHT22;7777;52.254;9.618;2024-01-30T01:49:14;7.60;99.90
15355;DHT22;7777;52.254;9.618;2024-01-30T01:51:42;7.50;99.90
15355;DHT22;7777;52.254;9.618;2024-01-30T01:54:10;7.50;99.90
15355;DHT22;7777;52.254;9.618;2024-01-30T01:56:37;7.50;99.90
15355;DHT22;7777;52.254;9.618;2024-01-30T01:59:06;7.50;99.90
15355;DHT22;7777;52.254;9.618;2024-01-30T02:01:38;7.50;99.90
15355;DHT22;7777;52.254;9.618;2024-01-30T02:04:07;7.40;99.90
15355;DHT22;7777;52.254;9.618;2024-01-30T02:06:35;7.40;99.90
15355;DHT22;7777;52.254;9.618;2024-01-30T02:09:00;7.40;99.90
15355;DHT22;7777;52.254;9.618;2024-01-30T02:11:26;7.40;99.90
15355;DHT22;7777;52.254;9.618;2024-01-30T02:13:53;7.40;99.90
15355;DHT22;7777;52.254;9.618;2024-01-30T02:16:19;7.40;99.90
15355;DHT22;7777;52.254;9.618;2024-01-30T02:18:46;7.30;99.90
15355;DHT22;7777;52.254;9.618;2024-01-30T02:21:17;7.40;99.90
15355;DHT22;7777;52.254;9.618;2024-01-30T02:23:44;7.30;99.90
15355;DHT22;7777;52.254;9.618;2024-01-30T02:26:12;7.30;99.90
15355;DHT22;7777;52.254;9.618;2024-01-30T02:28:38;7.30;99.90
15355;DHT22;7777;52.254;9.618;2024-01-30T02:31:04;7.20;99.90
15355;DHT22;7777;52.254;9.618;2024-01-30T02:33:31;7.20;99.90
15355;DHT22;7777;52.254;9.618;2024-01-30T02:35:56;7.20;99.90
15355;DHT22;7777;52.254;9.618;2024-01-30T02:38:22;7.20;99.90
15355;DHT22;7777;52.254;9.618;2024-01-30T02:40:52;7.20;99.90
15355;DHT22;7777;52.254;9.618;2024-01-30T02:43:18;7.20;99.90
15355;DHT22;7777;52.254;9.618;2024-01-30T02:45:44;7.20;99.90
15355;DHT22;7777;52.254;9.618;2024-01-30T02:48:09;7.20;99.90
15355;DHT22;7777;52.254;9.618;2024-01-30T02:50:35;7.20;99.90
15355;DHT22;7777;52.254;9.618;2024-01-30T02:53:01;7.20;99.90
15355;DHT22;7777;52.254;9.618;2024-01-30T02:55:26;7.20;99.90
15355;DHT22;7777;52.254;9.618;2024-01-30T02:57:52;7.20;99.90
15355;DHT22;7777;52.254;9.618;2024-01-30T03:00:19;7.20;99.90
15355;DHT22;7777;52.254;9.618;2024-01-30T03:02:45;7.20;99.90
15355;DHT22;7777;52.254;9.618;2024-01-30T03:05:11;7.20;99.90
15355;DHT22;7777;52.254;9.618;2024-01-30T03:07:36;7.20;99.90
15355;DHT22;7777;52.254;9.618;2024-01-30T03:10:05;7.20;99.90
15355;DHT22;7777;52.254;9.618;2024-01-30T03:12:31;7.10;99.90
15355;DHT22;7777;52.254;9.618;2024-01-30T03:14:57;7.10;99.90
15355;DHT22;7777;52.254;9.618;2024-01-30T03:17:23;7.10;99.90
15355;DHT22;7777;52.254;9.618;2024-01-30T03:19:49;7.10;99.90
15355;DHT22;7777;52.254;9.618;2024-01-30T03:22:16;7.10;99.90
15355;DHT22;7777;52.254;9.618;2024-01-30T03:24:42;7.10;99.90
15355;DHT22;7777;52.254;9.618;2024-01-30T03:27:08;7.00;99.90
15355;DHT22;7777;52.254;9.618;2024-01-30T03:29:34;7.10;99.90
15355;DHT22;7777;52.254;9.618;2024-01-30T03:32:00;7.10;99.90
15355;DHT22;7777;52.254;9.618;2024-01-30T03:34:26;7.00;99.90
15355;DHT22;7777;52.254;9.618;2024-01-30T03:36:52;7.00;99.90
15355;DHT22;7777;52.254;9.618;2024-01-30T03:39:17;7.00;99.90
15355;DHT22;7777;52.254;9.618;2024-01-30T03:41:44;7.00;99.90
15355;DHT22;7777;52.254;9.618;2024-01-30T03:44:10;6.90;99.90
15355;DHT22;7777;52.254;9.618;2024-01-30T03:46:36;6.90;99.90
15355;DHT22;7777;52.254;9.618;2024-01-30T03:49:02;6.80;99.90
15355;DHT22;7777;52.254;9.618;2024-01-30T03:51:28;6.80;99.90
15355;DHT22;7777;52.254;9.618;2024-01-30T03:53:54;6.70;99.90
15355;DHT22;7777;52.254;9.618;2024-01-30T03:56:19;6.70;99.90
15355;DHT22;7777;52.254;9.618;2024-01-30T03:58:45;6.60;99.90
15355;DHT22;7777;52.254;9.618;2024-01-30T04:01:14;6.60;99.90
15355;DHT22;7777;52.254;9.618;2024-01-30T04:03:41;6.60;99.90
15355;DHT22;7777;52.254;9.618;2024-01-30T04:06:07;6.60;99.90
15355;DHT22;7777;52.254;9.618;2024-01-30T04:08:33;6.50;99.90
15355;DHT22;7777;52.254;9.618;2024-01-30T04:11:06;6.40;99.90
15355;DHT22;7777;52.254;9.618;2024-01-30T04:13:32;6.40;99.90
15355;DHT22;7777;52.254;9.618;2024-01-30T04:16:02;6.50;99.90
15355;DHT22;7777;52.254;9.618;2024-01-30T04:18:29;6.50;99.90
15355;DHT22;7777;52.254;9.618;2024-01-30T04:20:55;6.40;99.90
15355;DHT22;7777;52.254;9.618;2024-01-30T04:23:20;6.40;99.90
15355;DHT22;7777;52.254;9.618;2024-01-30T04:25:46;6.30;99.90
15355;DHT22;7777;52.254;9.618;2024-01-30T04:28:12;6.30;99.90
15355;DHT22;7777;52.254;9.618;2024-01-30T04:30:38;6.20;99.90
15355;DHT22;7777;52.254;9.618;2024-01-30T04:33:04;6.20;99.90
15355;DHT22;7777;52.254;9.618;2024-01-30T04:35:29;6.20;99.90
15355;DHT22;7777;52.254;9.618;2024-01-30T04:37:55;6.20;99.90
15355;DHT22;7777;52.254;9.618;2024-01-30T04:40:21;6.20;99.90
15355;DHT22;7777;52.254;9.618;2024-01-30T04:42:47;6.10;99.90
15355;DHT22;7777;52.254;9.618;2024-01-30T04:45:13;6.20;99.90
15355;DHT22;7777;52.254;9.618;2024-01-30T04:47:38;6.10;99.90
15355;DHT22;7777;52.254;9.618;2024-01-30T04:50:06;6.10;99.90
15355;DHT22;7777;52.254;9.618;2024-01-30T04:52:33;6.10;99.90
15355;DHT22;7777;52.254;9.618;2024-01-30T04:54:58;6.00;99.90
15355;DHT22;7777;52.254;9.618;2024-01-30T04:57:24;6.00;99.90
15355;DHT22;7777;52.254;9.618;2024-01-30T04:59:50;6.00;99.90
15355;DHT22;7777;52.254;9.618;2024-01-30T05:02:15;6.00;99.90
15355;DHT22;7777;52.254;9.618;2024-01-30T05:04:41;5.90;99.90
15355;DHT22;7777;52.254;9.618;2024-01-30T05:07:07;5.90;99.90
15355;DHT22;7777;52.254;9.618;2024-01-30T05:09:34;5.90;99.90
15355;DHT22;7777;52.254;9.618;2024-01-30T05:12:01;5.90;99.90
15355;DHT22;7777;52.254;9.618;2024-01-30T05:14:30;5.80;99.90
15355;DHT22;7777;52.254;9.618;2024-01-30T05:16:56;5.80;99.90
15355;DHT22;7777;52.254;9.618;2024-01-30T05:19:22;5.80;99.90
15355;DHT22;7777;52.254;9.618;2024-01-30T05:21:50;5.70;99.90
15355;DHT22;7777;52.254;9.618;2024-01-30T05:24:16;5.70;99.90
15355;DHT22;7777;52.254;9.618;2024-01-30T05:26:42;5.70;99.90
15355;DHT22;7777;52.254;9.618;2024-01-30T05:29:08;5.70;99.90
15355;DHT22;7777;52.254;9.618;2024-01-30T05:31:34;5.70;99.90
15355;DHT22;7777;52.254;9.618;2024-01-30T05:34:00;5.70;99.90
15355;DHT22;7777;52.254;9.618;2024-01-30T05:36:26;5.70;99.90
15355;DHT22;7777;52.254;9.618;2024-01-30T05:38:52;5.70;99.90
15355;DHT22;7777;52.254;9.618;2024-01-30T05:41:19;5.70;99.90
15355;DHT22;7777;52.254;9.618;2024-01-30T05:43:46;5.70;99.90
15355;DHT22;7777;52.254;9.618;2024-01-30T05:46:12;5.60;99.90
15355;DHT22;7777;52.254;9.618;2024-01-30T05:48:38;5.60;99.90
15355;DHT22;7777;52.254;9.618;2024-01-30T05:51:04;5.60;99.90
15355;DHT22;7777;52.254;9.618;2024-01-30T05:53:29;5.60;99.90
15355;DHT22;7777;52.254;9.618;2024-01-30T05:55:55;5.50;99.90
15355;DHT22;7777;52.254;9.618;2024-01-30T05:58:21;5.50;99.90
15355;DHT22;7777;52.254;9.618;2024-01-30T06:00:47;5.50;99.90
15355;DHT22;7777;52.254;9.618;2024-01-30T06:03:13;5.40;99.90
15355;DHT22;7777;52.254;9.618;2024-01-30T06:05:39;5.40;99.90
15355;DHT22;7777;52.254;9.618;2024-01-30T06:08:05;5.40;99.90
15355;DHT22;7777;52.254;9.618;2024-01-30T06:10:32;5.40;99.90
15355;DHT22;7777;52.254;9.618;2024-01-30T06:12:58;5.40;99.90
15355;DHT22;7777;52.254;9.618;2024-01-30T06:15:24;5.40;99.90
15355;DHT22;7777;52.254;9.618;2024-01-30T06:17:50;5.40;99.90
15355;DHT22;7777;52.254;9.618;2024-01-30T06:20:15;5.40;99.90
15355;DHT22;7777;52.254;9.618;2024-01-30T06:22:42;5.30;99.90
15355;DHT22;7777;52.254;9.618;2024-01-30T06:25:08;5.30;99.90
15355;DHT22;7777;52.254;9.618;2024-01-30T06:27:35;5.30;99.90
15355;DHT22;7777;52.254;9.618;2024-01-30T06:30:01;5.30;99.90
15355;DHT22;7777;52.254;9.618;2024-01-30T06:32:27;5.20;99.80
15355;DHT22;7777;52.254;9.618;2024-01-30T06:34:54;5.20;99.90
15355;DHT22;7777;52.254;9.618;2024-01-30T06:37:19;5.20;99.90
15355;DHT22;7777;52.254;9.618;2024-01-30T06:39:45;5.20;99.90
15355;DHT22;7777;52.254;9.618;2024-01-30T06:42:12;5.20;99.90
15355;DHT22;7777;52.254;9.618;2024-01-30T06:44:39;5.10;99.90
15355;DHT22;7777;52.254;9.618;2024-01-30T06:47:05;5.10;99.90
15355;DHT22;7777;52.254;9.618;2024-01-30T06:49:31;5.10;99.90
15355;DHT22;7777;52.254;9.618;2024-01-30T06:51:56;5.10;99.90
15355;DHT22;7777;52.254;9.618;2024-01-30T06:54:22;5.00;99.90
15355;DHT22;7777;52.254;9.618;2024-01-30T06:56:48;5.00;99.90
15355;DHT22;7777;52.254;9.618;2024-01-30T06:59:14;5.10;99.90
15355;DHT22;7777;52.254;9.618;2024-01-30T07:01:40;5.10;99.90
15355;DHT22;7777;52.254;9.618;2024-01-30T07:04:06;5.10;99.90
15355;DHT22;7777;52.254;9.618;2024-01-30T07:06:32;5.20;99.90
15355;DHT22;7777;52.254;9.618;2024-01-30T07:08:58;5.20;99.90
15355;DHT22;7777;52.254;9.618;2024-01-30T07:11:24;5.20;99.90
15355;DHT22;7777;52.254;9.618;2024-01-30T07:13:53;5.30;99.90
15355;DHT22;7777;52.254;9.618;2024-01-30T07:16:19;5.30;99.90
15355;DHT22;7777;52.254;9.618;2024-01-30T07:18:44;5.30;99.90
15355;DHT22;7777;52.254;9.618;2024-01-30T07:21:11;5.40;99.90
15355;DHT22;7777;52.254;9.618;2024-01-30T07:23:37;5.40;99.90
15355;DHT22;7777;52.254;9.618;2024-01-30T07:26:10;5.40;99.90
15355;DHT22;7777;52.254;9.618;2024-01-30T07:28:37;5.40;99.90
15355;DHT22;7777;52.254;9.618;2024-01-30T07:31:03;5.50;99.90
15355;DHT22;7777;52.254;9.618;2024-01-30T07:33:29;5.50;99.90
15355;DHT22;7777;52.254;9.618;2024-01-30T07:35:55;5.50;99.90
15355;DHT22;7777;52.254;9.618;2024-01-30T07:38:22;5.50;99.90
15355;DHT22;7777;52.254;9.618;2024-01-30T07:40:47;5.50;99.90
15355;DHT22;7777;52.254;9.618;2024-01-30T07:43:13;5.50;99.90
15355;DHT22;7777;52.254;9.618;2024-01-30T07:45:39;5.50;99.90
15355;DHT22;7777;52.254;9.618;2024-01-30T07:48:05;5.50;99.90
15355;DHT22;7777;52.254;9.618;2024-01-30T07:50:32;5.50;99.90
15355;DHT22;7777;52.254;9.618;2024-01-30T07:53:00;5.40;99.90
15355;DHT22;7777;52.254;9.618;2024-01-30T07:55:26;5.50;99.90
15355;DHT22;7777;52.254;9.618;2024-01-30T07:57:57;5.40;99.90
15355;DHT22;7777;52.254;9.618;2024-01-30T08:00:24;5.50;99.90
15355;DHT22;7777;52.254;9.618;2024-01-30T08:02:51;5.50;99.90
15355;DHT22;7777;52.254;9.618;2024-01-30T08:05:19;5.50;99.90
15355;DHT22;7777;52.254;9.618;2024-01-30T08:07:49;5.50;99.90
15355;DHT22;7777;52.254;9.618;2024-01-30T08:10:15;5.50;99.90
15355;DHT22;7777;52.254;9.618;2024-01-30T08:13:03;5.50;99.90
15355;DHT22;7777;52.254;9.618;2024-01-30T08:15:29;5.50;99.90
15355;DHT22;7777;52.254;9.618;2024-01-30T08:17:55;5.50;99.90
15355;DHT22;7777;52.254;9.618;2024-01-30T08:20:24;5.60;99.90
15355;DHT22;7777;52.254;9.618;2024-01-30T08:22:50;5.50;99.90
15355;DHT22;7777;52.254;9.618;2024-01-30T08:25:16;5.60;99.90
15355;DHT22;7777;52.254;9.618;2024-01-30T08:27:45;5.60;99.90
15355;DHT22;7777;52.254;9.618;2024-01-30T08:30:11;5.70;99.90
15355;DHT22;7777;52.254;9.618;2024-01-30T08:32:37;5.70;99.90
15355;DHT22;7777;52.254;9.618;2024-01-30T08:35:02;5.80;99.90
15355;DHT22;7777;52.254;9.618;2024-01-30T08:37:29;5.80;99.90
15355;DHT22;7777;52.254;9.618;2024-01-30T08:39:55;5.90;99.90
15355;DHT22;7777;52.254;9.618;2024-01-30T08:42:21;5.90;99.90
15355;DHT22;7777;52.254;9.618;2024-01-30T08:44:49;6.00;99.90
15355;DHT22;7777;52.254;9.618;2024-01-30T08:47:17;6.10;99.90
15355;DHT22;7777;52.254;9.618;2024-01-30T08:49:44;6.10;99.90
15355;DHT22;7777;52.254;9.618;2024-01-30T08:52:10;6.20;99.90
15355;DHT22;7777;52.254;9.618;2024-01-30T08:54:36;6.30;99.90
15355;DHT22;7777;52.254;9.618;2024-01-30T08:57:02;6.30;99.90
15355;DHT22;7777;52.254;9.618;2024-01-30T08:59:29;6.40;99.90
15355;DHT22;7777;52.254;9.618;2024-01-30T09:01:55;6.50;99.90
15355;DHT22;7777;52.254;9.618;2024-01-30T09:04:23;6.50;99.90
15355;DHT22;7777;52.254;9.618;2024-01-30T09:06:49;6.60;99.90
15355;DHT22;7777;52.254;9.618;2024-01-30T09:09:14;6.60;99.90
15355;DHT22;7777;52.254;9.618;2024-01-30T09:11:40;6.70;99.90
15355;DHT22;7777;52.254;9.618;2024-01-30T09:14:06;6.80;99.90
15355;DHT22;7777;52.254;9.618;2024-01-30T09:16:32;6.80;99.90
15355;DHT22;7777;52.254;9.618;2024-01-30T09:18:58;6.90;99.90
15355;DHT22;7777;52.254;9.618;2024-01-30T09:21:24;6.90;99.90
15355;DHT22;7777;52.254;9.618;2024-01-30T09:23:50;7.00;99.90
15355;DHT22;7777;52.254;9.618;2024-01-30T09:26:17;7.00;99.90
15355;DHT22;7777;52.254;9.618;2024-01-30T09:28:43;7.10;99.90
15355;DHT22;7777;52.254;9.618;2024-01-30T09:31:12;7.10;99.90
15355;DHT22;7777;52.254;9.618;2024-01-30T09:33:38;7.20;99.90
15355;DHT22;7777;52.254;9.618;2024-01-30T09:36:05;7.30;99.90
15355;DHT22;7777;52.254;9.618;2024-01-30T09:38:34;7.30;99.90
15355;DHT22;7777;52.254;9.618;2024-01-30T09:41:03;7.30;99.90
15355;DHT22;7777;52.254;9.618;2024-01-30T09:43:39;7.40;99.90
15355;DHT22;7777;52.254;9.618;2024-01-30T09:46:05;7.50;99.90
15355;DHT22;7777;52.254;9.618;2024-01-30T09:48:34;7.60;99.90
15355;DHT22;7777;52.254;9.618;2024-01-30T09:51:00;7.60;99.90
15355;DHT22;7777;52.254;9.618;2024-01-30T09:53:28;7.60;99.90
15355;DHT22;7777;52.254;9.618;2024-01-30T09:55:53;7.70;99.90
15355;DHT22;7777;52.254;9.618;2024-01-30T09:58:19;7.70;99.90
15355;DHT22;7777;52.254;9.618;2024-01-30T10:00:45;7.80;99.90
15355;DHT22;7777;52.254;9.618;2024-01-30T10:03:11;7.80;99.90
15355;DHT22;7777;52.254;9.618;2024-01-30T10:05:36;7.90;99.90
15355;DHT22;7777;52.254;9.618;2024-01-30T10:08:07;7.90;99.90
15355;DHT22;7777;52.254;9.618;2024-01-30T10:10:34;8.00;99.90
15355;DHT22;7777;52.254;9.618;2024-01-30T10:13:01;8.00;99.90
15355;DHT22;7777;52.254;9.618;2024-01-30T10:15:28;8.10;99.90
15355;DHT22;7777;52.254;9.618;2024-01-30T10:17:54;8.10;99.90
15355;DHT22;7777;52.254;9.618;2024-01-30T10:20:20;8.20;99.90
15355;DHT22;7777;52.254;9.618;2024-01-30T10:22:48;8.30;99.90
15355;DHT22;7777;52.254;9.618;2024-01-30T10:25:15;8.30;99.90
15355;DHT22;7777;52.254;9.618;2024-01-30T10:27:41;8.40;99.90
15355;DHT22;7777;52.254;9.618;2024-01-30T10:30:08;8.40;99.90
15355;DHT22;7777;52.254;9.618;2024-01-30T10:32:34;8.50;99.90
15355;DHT22;7777;52.254;9.618;2024-01-30T10:35:00;8.60;99.90
15355;DHT22;7777;52.254;9.618;2024-01-30T10:37:26;8.60;99.90
15355;DHT22;7777;52.254;9.618;2024-01-30T10:39:56;8.60;99.90
15355;DHT22;7777;52.254;9.618;2024-01-30T10:42:26;8.70;99.90
15355;DHT22;7777;52.254;9.618;2024-01-30T10:45:02;8.80;99.90
15355;DHT22;7777;52.254;9.618;2024-01-30T10:47:34;8.80;99.90
15355;DHT22;7777;52.254;9.618;2024-01-30T10:50:04;8.90;99.90
15355;DHT22;7777;52.254;9.618;2024-01-30T10:52:32;8.90;99.90
15355;DHT22;7777;52.254;9.618;2024-01-30T10:55:00;9.00;99.90
15355;DHT22;7777;52.254;9.618;2024-01-30T10:57:26;9.00;99.90
15355;DHT22;7777;52.254;9.618;2024-01-30T10:59:56;9.10;99.90
15355;DHT22;7777;52.254;9.618;2024-01-30T11:02:24;9.10;99.90
15355;DHT22;7777;52.254;9.618;2024-01-30T11:04:57;9.10;99.90
15355;DHT22;7777;52.254;9.618;2024-01-30T11:07:25;9.20;99.90
15355;DHT22;7777;52.254;9.618;2024-01-30T11:12:27;9.20;99.90
15355;DHT22;7777;52.254;9.618;2024-01-30T11:17:50;9.30;99.90
15355;DHT22;7777;52.254;9.618;2024-01-30T11:20:21;9.30;99.90
15355;DHT22;7777;52.254;9.618;2024-01-30T11:22:50;9.40;99.90
15355;DHT22;7777;52.254;9.618;2024-01-30T11:25:20;9.40;99.90
15355;DHT22;7777;52.254;9.618;2024-01-30T11:27:47;9.40;99.90
15355;DHT22;7777;52.254;9.618;2024-01-30T11:30:29;9.40;99.90
15355;DHT22;7777;52.254;9.618;2024-01-30T11:33:09;9.50;99.90
15355;DHT22;7777;52.254;9.618;2024-01-30T11:38:10;9.50;99.90
15355;DHT22;7777;52.254;9.618;2024-01-30T11:40:38;9.60;99.90
15355;DHT22;7777;52.254;9.618;2024-01-30T11:43:07;9.60;99.90
15355;DHT22;7777;52.254;9.618;2024-01-30T11:45:34;9.60;99.90
15355;DHT22;7777;52.254;9.618;2024-01-30T11:48:01;9.70;99.90
15355;DHT22;7777;52.254;9.618;2024-01-30T11:50:29;9.70;99.90
15355;DHT22;7777;52.254;9.618;2024-01-30T11:52:56;9.70;99.90
15355;DHT22;7777;52.254;9.618;2024-01-30T11:55:23;9.70;99.90
15355;DHT22;7777;52.254;9.618;2024-01-30T11:57:50;9.80;99.90
15355;DHT22;7777;52.254;9.618;2024-01-30T12:00:18;9.80;99.90
15355;DHT22;7777;52.254;9.618;2024-01-30T12:02:50;9.90;99.90
15355;DHT22;7777;52.254;9.618;2024-01-30T12:05:23;9.90;99.90
15355;DHT22;7777;52.254;9.618;2024-01-30T12:07:50;10.00;99.90
15355;DHT22;7777;52.254;9.618;2024-01-30T12:10:16;10.00;99.90
15355;DHT22;7777;52.254;9.618;2024-01-30T12:12:46;10.00;99.90
15355;DHT22;7777;52.254;9.618;2024-01-30T12:15:14;10.10;99.90
15355;DHT22;7777;52.254;9.618;2024-01-30T12:17:40;10.10;99.90
15355;DHT22;7777;52.254;9.618;2024-01-30T12:20:13;10.10;99.90
15355;DHT22;7777;52.254;9.618;2024-01-30T12:22:41;10.20;99.90
15355;DHT22;7777;52.254;9.618;2024-01-30T12:25:12;10.20;99.90
15355;DHT22;7777;52.254;9.618;2024-01-30T12:27:41;10.20;99.90
15355;DHT22;7777;52.254;9.618;2024-01-30T12:30:09;10.30;99.90
15355;DHT22;7777;52.254;9.618;2024-01-30T12:32:36;10.30;99.90
15355;DHT22;7777;52.254;9.618;2024-01-30T12:35:03;10.40;99.90
15355;DHT22;7777;52.254;9.618;2024-01-30T12:37:30;10.40;99.90
15355;DHT22;7777;52.254;9.618;2024-01-30T12:39:57;10.40;99.90
15355;DHT22;7777;52.254;9.618;2024-01-30T12:42:23;10.40;99.90
15355;DHT22;7777;52.254;9.618;2024-01-30T12:44:50;10.40;99.90
15355;DHT22;7777;52.254;9.618;2024-01-30T12:47:16;10.40;99.90
15355;DHT22;7777;52.254;9.618;2024-01-30T12:49:43;10.40;99.90
15355;DHT22;7777;52.254;9.618;2024-01-30T12:52:10;10.40;99.90
15355;DHT22;7777;52.254;9.618;2024-01-30T12:54:38;10.40;99.90
15355;DHT22;7777;52.254;9.618;2024-01-30T12:57:04;10.40;99.90
15355;DHT22;7777;52.254;9.618;2024-01-30T12:59:31;10.40;99.90
15355;DHT22;7777;52.254;9.618;2024-01-30T13:02:00;10.40;99.90
15355;DHT22;7777;52.254;9.618;2024-01-30T13:04:26;10.40;99.90
15355;DHT22;7777;52.254;9.618;2024-01-30T13:06:52;10.40;99.90
15355;DHT22;7777;52.254;9.618;2024-01-30T13:09:18;10.40;99.90
15355;DHT22;7777;52.254;9.618;2024-01-30T13:11:43;10.40;99.90
15355;DHT22;7777;52.254;9.618;2024-01-30T13:14:09;10.40;99.90
15355;DHT22;7777;52.254;9.618;2024-01-30T13:16:35;10.40;99.90
15355;DHT22;7777;52.254;9.618;2024-01-30T13:19:01;10.40;99.90
15355;DHT22;7777;52.254;9.618;2024-01-30T13:21:29;10.40;99.90
15355;DHT22;7777;52.254;9.618;2024-01-30T13:23:55;10.40;99.90
15355;DHT22;7777;52.254;9.618;2024-01-30T13:26:21;10.40;99.90
15355;DHT22;7777;52.254;9.618;2024-01-30T13:28:47;10.40;99.90
15355;DHT22;7777;52.254;9.618;2024-01-30T13:31:16;10.40;99.90
15355;DHT22;7777;52.254;9.618;2024-01-30T13:33:41;10.40;99.90
15355;DHT22;7777;52.254;9.618;2024-01-30T13:36:09;10.40;99.90
15355;DHT22;7777;52.254;9.618;2024-01-30T13:38:35;10.40;99.90
15355;DHT22;7777;52.254;9.618;2024-01-30T13:41:01;10.40;99.90
15355;DHT22;7777;52.254;9.618;2024-01-30T13:43:28;10.40;99.90
15355;DHT22;7777;52.254;9.618;2024-01-30T13:45:54;10.40;99.90
15355;DHT22;7777;52.254;9.618;2024-01-30T13:48:20;10.40;99.90
15355;DHT22;7777;52.254;9.618;2024-01-30T13:50:46;10.40;99.90
15355;DHT22;7777;52.254;9.618;2024-01-30T13:53:12;10.40;99.90
15355;DHT22;7777;52.254;9.618;2024-01-30T13:55:37;10.40;99.90
15355;DHT22;7777;52.254;9.618;2024-01-30T13:58:05;10.40;99.90
15355;DHT22;7777;52.254;9.618;2024-01-30T14:00:31;10.40;99.90
15355;DHT22;7777;52.254;9.618;2024-01-30T14:02:57;10.40;99.90
15355;DHT22;7777;52.254;9.618;2024-01-30T14:05:24;10.40;99.90
15355;DHT22;7777;52.254;9.618;2024-01-30T14:07:51;10.40;99.90
15355;DHT22;7777;52.254;9.618;2024-01-30T14:10:17;10.40;99.90
15355;DHT22;7777;52.254;9.618;2024-01-30T14:12:44;10.40;99.90
15355;DHT22;7777;52.254;9.618;2024-01-30T14:15:10;10.40;99.90
15355;DHT22;7777;52.254;9.618;2024-01-30T14:17:38;10.50;99.90
15355;DHT22;7777;52.254;9.618;2024-01-30T14:20:05;10.50;99.90
15355;DHT22;7777;52.254;9.618;2024-01-30T14:22:33;10.50;99.90
15355;DHT22;7777;52.254;9.618;2024-01-30T14:25:00;10.40;99.90
15355;DHT22;7777;52.254;9.618;2024-01-30T14:27:28;10.50;99.90
15355;DHT22;7777;52.254;9.618;2024-01-30T14:29:56;10.50;99.90
15355;DHT22;7777;52.254;9.618;2024-01-30T14:32:22;10.50;99.90
15355;DHT22;7777;52.254;9.618;2024-01-30T14:34:49;10.50;99.90
15355;DHT22;7777;52.254;9.618;2024-01-30T14:37:15;10.50;99.90
15355;DHT22;7777;52.254;9.618;2024-01-30T14:39:41;10.50;99.90
15355;DHT22;7777;52.254;9.618;2024-01-30T14:42:07;10.50;99.90
15355;DHT22;7777;52.254;9.618;2024-01-30T14:44:33;10.50;99.90
15355;DHT22;7777;52.254;9.618;2024-01-30T14:46:59;10.50;99.90
15355;DHT22;7777;52.254;9.618;2024-01-30T14:49:25;10.50;99.90
15355;DHT22;7777;52.254;9.618;2024-01-30T14:51:51;10.50;99.90
15355;DHT22;7777;52.254;9.618;2024-01-30T14:54:17;10.50;99.90
15355;DHT22;7777;52.254;9.618;2024-01-30T14:56:44;10.50;99.90
15355;DHT22;7777;52.254;9.618;2024-01-30T14:59:09;10.50;99.90
15355;DHT22;7777;52.254;9.618;2024-01-30T15:01:36;10.50;99.90
15355;DHT22;7777;52.254;9.618;2024-01-30T15:04:02;10.50;99.90
15355;DHT22;7777;52.254;9.618;2024-01-30T15:06:28;10.50;99.90
15355;DHT22;7777;52.254;9.618;2024-01-30T15:08:54;10.50;99.90
15355;DHT22;7777;52.254;9.618;2024-01-30T15:11:20;10.50;99.90
15355;DHT22;7777;52.254;9.618;2024-01-30T15:13:46;10.50;99.90
15355;DHT22;7777;52.254;9.618;2024-01-30T15:16:12;10.60;99.90
15355;DHT22;7777;52.254;9.618;2024-01-30T15:18:39;10.60;99.90
15355;DHT22;7777;52.254;9.618;2024-01-30T15:21:07;10.60;99.90
15355;DHT22;7777;52.254;9.618;2024-01-30T15:23:32;10.60;99.90
15355;DHT22;7777;52.254;9.618;2024-01-30T15:25:58;10.70;99.90
15355;DHT22;7777;52.254;9.618;2024-01-30T15:28:34;10.60;99.90
15355;DHT22;7777;52.254;9.618;2024-01-30T15:31:02;10.60;99.90
15355;DHT22;7777;52.254;9.618;2024-01-30T15:33:28;10.60;99.90
15355;DHT22;7777;52.254;9.618;2024-01-30T15:35:53;10.60;99.90
15355;DHT22;7777;52.254;9.618;2024-01-30T15:38:20;10.50;99.90
15355;DHT22;7777;52.254;9.618;2024-01-30T15:40:46;10.60;99.90
15355;DHT22;7777;52.254;9.618;2024-01-30T15:43:12;10.60;99.90
15355;DHT22;7777;52.254;9.618;2024-01-30T15:45:38;10.60;99.90
15355;DHT22;7777;52.254;9.618;2024-01-30T15:48:06;10.60;99.90
15355;DHT22;7777;52.254;9.618;2024-01-30T15:50:33;10.60;99.90
15355;DHT22;7777;52.254;9.618;2024-01-30T15:52:59;10.60;99.90
15355;DHT22;7777;52.254;9.618;2024-01-30T15:55:25;10.60;99.90
15355;DHT22;7777;52.254;9.618;2024-01-30T15:57:52;10.60;99.90
15355;DHT22;7777;52.254;9.618;2024-01-30T16:00:19;10.60;99.90
15355;DHT22;7777;52.254;9.618;2024-01-30T16:02:45;10.60;99.90